Terminal Aerodrome Forecast
Issued by NWS Cleveland, OH

Home | Current Version | Previous Version | Text Only | Print | Product List | Glossary On
Versions: 1 2 3 4 5 6 7 8 9 10 11 12 13 14 15 16 17 18 19 20 21 22 23 24 25 26 27 28 29
000
FTUS41 KCLE 230500
TAFYNG
TAF
KYNG 230537Z 2306/2406 34005KT P6SM BKN035
     FM231200 34007KT P6SM BKN015 BKN035
     FM231700 34007KT P6SM BKN035
     FM232300 VRB03KT P6SM SKC=

USA.gov is the U.S. government's official web portal to all federal, state and local government web resources and services.